sensor_id;sensor_type;location;lat;lon;timestamp;P1;durP1;ratioP1;P2;durP2;ratioP2
71253;SDS011;59019;47.638;18.966;2023-10-13T00:01:42;13.40;;;7.68;;
71253;SDS011;59019;47.638;18.966;2023-10-13T00:04:08;12.40;;;8.10;;
71253;SDS011;59019;47.638;18.966;2023-10-13T00:06:33;13.50;;;7.80;;
71253;SDS011;59019;47.638;18.966;2023-10-13T00:08:59;13.37;;;8.10;;
71253;SDS011;59019;47.638;18.966;2023-10-13T00:11:25;12.48;;;7.70;;
71253;SDS011;59019;47.638;18.966;2023-10-13T00:13:52;14.90;;;8.00;;
71253;SDS011;59019;47.638;18.966;2023-10-13T00:16:19;14.10;;;7.75;;
71253;SDS011;59019;47.638;18.966;2023-10-13T00:18:52;13.88;;;8.30;;
71253;SDS011;59019;47.638;18.966;2023-10-13T00:21:24;12.07;;;7.70;;
71253;SDS011;59019;47.638;18.966;2023-10-13T00:24:03;15.32;;;7.90;;
71253;SDS011;59019;47.638;18.966;2023-10-13T00:26:55;13.02;;;7.80;;
71253;SDS011;59019;47.638;18.966;2023-10-13T00:29:43;13.07;;;7.85;;
71253;SDS011;59019;47.638;18.966;2023-10-13T00:32:29;14.27;;;7.85;;
71253;SDS011;59019;47.638;18.966;2023-10-13T00:35:03;13.63;;;8.07;;
71253;SDS011;59019;47.638;18.966;2023-10-13T00:37:30;14.82;;;8.15;;
71253;SDS011;59019;47.638;18.966;2023-10-13T00:40:06;14.40;;;8.00;;
71253;SDS011;59019;47.638;18.966;2023-10-13T00:42:41;14.50;;;7.95;;
71253;SDS011;59019;47.638;18.966;2023-10-13T00:45:16;14.57;;;7.70;;
71253;SDS011;59019;47.638;18.966;2023-10-13T00:47:42;13.60;;;7.75;;
71253;SDS011;59019;47.638;18.966;2023-10-13T00:50:21;13.20;;;7.72;;
71253;SDS011;59019;47.638;18.966;2023-10-13T00:52:49;13.70;;;7.97;;
71253;SDS011;59019;47.638;18.966;2023-10-13T00:55:16;15.05;;;8.07;;
71253;SDS011;59019;47.638;18.966;2023-10-13T00:57:43;14.52;;;7.80;;
71253;SDS011;59019;47.638;18.966;2023-10-13T01:00:11;14.85;;;7.45;;
71253;SDS011;59019;47.638;18.966;2023-10-13T01:02:53;11.73;;;7.43;;
71253;SDS011;59019;47.638;18.966;2023-10-13T01:05:30;12.18;;;7.25;;
71253;SDS011;59019;47.638;18.966;2023-10-13T01:08:00;13.90;;;7.03;;
71253;SDS011;59019;47.638;18.966;2023-10-13T01:10:26;13.02;;;7.40;;
71253;SDS011;59019;47.638;18.966;2023-10-13T01:12:52;12.20;;;6.93;;
71253;SDS011;59019;47.638;18.966;2023-10-13T01:15:19;14.25;;;7.43;;
71253;SDS011;59019;47.638;18.966;2023-10-13T01:17:54;12.98;;;7.60;;
71253;SDS011;59019;47.638;18.966;2023-10-13T01:20:30;12.40;;;7.38;;
71253;SDS011;59019;47.638;18.966;2023-10-13T01:22:58;14.57;;;7.85;;
71253;SDS011;59019;47.638;18.966;2023-10-13T01:25:24;14.55;;;7.50;;
71253;SDS011;59019;47.638;18.966;2023-10-13T01:27:53;13.30;;;7.65;;
71253;SDS011;59019;47.638;18.966;2023-10-13T01:30:19;12.85;;;7.50;;
71253;SDS011;59019;47.638;18.966;2023-10-13T01:32:52;12.75;;;7.70;;
71253;SDS011;59019;47.638;18.966;2023-10-13T01:35:19;13.63;;;8.37;;
71253;SDS011;59019;47.638;18.966;2023-10-13T01:37:50;13.68;;;8.02;;
71253;SDS011;59019;47.638;18.966;2023-10-13T01:40:16;13.00;;;7.30;;
71253;SDS011;59019;47.638;18.966;2023-10-13T01:43:02;12.00;;;7.10;;
71253;SDS011;59019;47.638;18.966;2023-10-13T01:45:29;13.13;;;7.00;;
71253;SDS011;59019;47.638;18.966;2023-10-13T01:47:55;12.05;;;7.07;;
71253;SDS011;59019;47.638;18.966;2023-10-13T01:50:22;13.27;;;6.70;;
71253;SDS011;59019;47.638;18.966;2023-10-13T01:53:16;11.20;;;6.57;;
71253;SDS011;59019;47.638;18.966;2023-10-13T01:56:05;14.93;;;8.52;;
71253;SDS011;59019;47.638;18.966;2023-10-13T01:58:55;15.50;;;7.30;;
71253;SDS011;59019;47.638;18.966;2023-10-13T02:01:41;12.25;;;6.95;;
71253;SDS011;59019;47.638;18.966;2023-10-13T02:04:07;11.63;;;6.50;;
71253;SDS011;59019;47.638;18.966;2023-10-13T02:06:35;12.20;;;6.75;;
71253;SDS011;59019;47.638;18.966;2023-10-13T02:09:05;11.15;;;6.43;;
71253;SDS011;59019;47.638;18.966;2023-10-13T02:11:39;13.32;;;6.72;;
71253;SDS011;59019;47.638;18.966;2023-10-13T02:14:05;11.20;;;6.55;;
71253;SDS011;59019;47.638;18.966;2023-10-13T02:16:30;11.23;;;6.13;;
71253;SDS011;59019;47.638;18.966;2023-10-13T02:18:57;13.10;;;7.03;;
71253;SDS011;59019;47.638;18.966;2023-10-13T02:21:29;12.37;;;6.57;;
71253;SDS011;59019;47.638;18.966;2023-10-13T02:23:57;13.57;;;6.78;;
71253;SDS011;59019;47.638;18.966;2023-10-13T02:26:29;10.95;;;6.25;;
71253;SDS011;59019;47.638;18.966;2023-10-13T02:29:01;11.50;;;6.40;;
71253;SDS011;59019;47.638;18.966;2023-10-13T02:31:36;13.02;;;6.55;;
71253;SDS011;59019;47.638;18.966;2023-10-13T02:34:02;11.38;;;6.65;;
71253;SDS011;59019;47.638;18.966;2023-10-13T02:36:37;11.55;;;6.43;;
71253;SDS011;59019;47.638;18.966;2023-10-13T02:39:16;11.90;;;6.40;;
71253;SDS011;59019;47.638;18.966;2023-10-13T02:41:42;11.98;;;6.63;;
71253;SDS011;59019;47.638;18.966;2023-10-13T02:44:13;13.25;;;7.00;;
71253;SDS011;59019;47.638;18.966;2023-10-13T02:46:59;13.35;;;7.78;;
71253;SDS011;59019;47.638;18.966;2023-10-13T02:49:25;13.30;;;8.00;;
71253;SDS011;59019;47.638;18.966;2023-10-13T02:51:54;11.88;;;7.30;;
71253;SDS011;59019;47.638;18.966;2023-10-13T02:54:41;12.15;;;6.90;;
71253;SDS011;59019;47.638;18.966;2023-10-13T02:57:15;12.63;;;7.22;;
71253;SDS011;59019;47.638;18.966;2023-10-13T02:59:44;13.93;;;6.78;;
71253;SDS011;59019;47.638;18.966;2023-10-13T03:02:13;11.82;;;6.80;;
71253;SDS011;59019;47.638;18.966;2023-10-13T03:04:48;13.02;;;6.72;;
71253;SDS011;59019;47.638;18.966;2023-10-13T03:07:24;13.88;;;6.72;;
71253;SDS011;59019;47.638;18.966;2023-10-13T03:09:53;13.57;;;6.80;;
71253;SDS011;59019;47.638;18.966;2023-10-13T03:12:23;12.63;;;6.60;;
71253;SDS011;59019;47.638;18.966;2023-10-13T03:14:58;11.52;;;6.10;;
71253;SDS011;59019;47.638;18.966;2023-10-13T03:17:42;14.80;;;6.45;;
71253;SDS011;59019;47.638;18.966;2023-10-13T03:20:11;12.73;;;6.32;;
71253;SDS011;59019;47.638;18.966;2023-10-13T03:22:44;11.02;;;5.70;;
71253;SDS011;59019;47.638;18.966;2023-10-13T03:25:22;12.87;;;6.00;;
71253;SDS011;59019;47.638;18.966;2023-10-13T03:28:07;11.88;;;6.20;;
71253;SDS011;59019;47.638;18.966;2023-10-13T03:30:38;13.98;;;6.20;;
71253;SDS011;59019;47.638;18.966;2023-10-13T03:33:06;11.63;;;5.80;;
71253;SDS011;59019;47.638;18.966;2023-10-13T03:35:50;10.13;;;5.13;;
71253;SDS011;59019;47.638;18.966;2023-10-13T03:38:19;11.85;;;5.40;;
71253;SDS011;59019;47.638;18.966;2023-10-13T03:40:52;11.68;;;5.50;;
71253;SDS011;59019;47.638;18.966;2023-10-13T03:43:43;12.73;;;5.50;;
71253;SDS011;59019;47.638;18.966;2023-10-13T03:46:17;11.95;;;5.63;;
71253;SDS011;59019;47.638;18.966;2023-10-13T03:48:46;13.70;;;6.53;;
71253;SDS011;59019;47.638;18.966;2023-10-13T03:51:26;11.15;;;6.32;;
71253;SDS011;59019;47.638;18.966;2023-10-13T03:53:56;14.70;;;6.90;;
71253;SDS011;59019;47.638;18.966;2023-10-13T03:58:51;11.43;;;6.05;;
71253;SDS011;59019;47.638;18.966;2023-10-13T04:01:25;11.20;;;5.50;;
71253;SDS011;59019;47.638;18.966;2023-10-13T04:04:11;11.95;;;5.70;;
71253;SDS011;59019;47.638;18.966;2023-10-13T04:06:43;12.03;;;6.07;;
71253;SDS011;59019;47.638;18.966;2023-10-13T04:09:18;12.17;;;7.63;;
71253;SDS011;59019;47.638;18.966;2023-10-13T04:12:04;13.93;;;7.40;;
71253;SDS011;59019;47.638;18.966;2023-10-13T04:14:51;16.27;;;7.40;;
71253;SDS011;59019;47.638;18.966;2023-10-13T04:17:23;12.90;;;7.05;;
71253;SDS011;59019;47.638;18.966;2023-10-13T04:19:53;12.18;;;6.90;;
71253;SDS011;59019;47.638;18.966;2023-10-13T04:22:41;12.38;;;7.10;;
71253;SDS011;59019;47.638;18.966;2023-10-13T04:28:07;10.73;;;6.90;;
71253;SDS011;59019;47.638;18.966;2023-10-13T04:30:39;14.43;;;7.30;;
71253;SDS011;59019;47.638;18.966;2023-10-13T04:33:27;13.40;;;7.25;;
71253;SDS011;59019;47.638;18.966;2023-10-13T04:36:11;14.68;;;7.50;;
71253;SDS011;59019;47.638;18.966;2023-10-13T04:38:44;14.30;;;7.32;;
71253;SDS011;59019;47.638;18.966;2023-10-13T04:44:01;12.13;;;7.00;;
71253;SDS011;59019;47.638;18.966;2023-10-13T04:46:30;11.57;;;6.93;;
71253;SDS011;59019;47.638;18.966;2023-10-13T04:49:22;13.03;;;7.30;;
71253;SDS011;59019;47.638;18.966;2023-10-13T04:51:57;13.45;;;7.60;;
71253;SDS011;59019;47.638;18.966;2023-10-13T04:54:26;12.93;;;7.37;;
71253;SDS011;59019;47.638;18.966;2023-10-13T04:56:58;13.27;;;7.27;;
71253;SDS011;59019;47.638;18.966;2023-10-13T04:59:45;13.48;;;7.32;;
71253;SDS011;59019;47.638;18.966;2023-10-13T05:02:33;13.32;;;6.90;;
71253;SDS011;59019;47.638;18.966;2023-10-13T05:05:06;11.23;;;6.57;;
71253;SDS011;59019;47.638;18.966;2023-10-13T05:07:39;15.07;;;6.82;;
71253;SDS011;59019;47.638;18.966;2023-10-13T05:10:23;12.25;;;6.80;;
71253;SDS011;59019;47.638;18.966;2023-10-13T05:13:07;13.70;;;7.00;;
71253;SDS011;59019;47.638;18.966;2023-10-13T05:15:52;11.13;;;6.33;;
71253;SDS011;59019;47.638;18.966;2023-10-13T05:18:36;13.98;;;7.43;;
71253;SDS011;59019;47.638;18.966;2023-10-13T05:21:20;13.77;;;7.30;;
71253;SDS011;59019;47.638;18.966;2023-10-13T05:24:05;13.18;;;7.28;;
71253;SDS011;59019;47.638;18.966;2023-10-13T05:26:56;13.82;;;7.05;;
71253;SDS011;59019;47.638;18.966;2023-10-13T05:29:41;13.27;;;6.93;;
71253;SDS011;59019;47.638;18.966;2023-10-13T05:32:26;12.43;;;6.53;;
71253;SDS011;59019;47.638;18.966;2023-10-13T05:35:13;13.93;;;6.70;;
71253;SDS011;59019;47.638;18.966;2023-10-13T05:37:58;12.13;;;7.03;;
71253;SDS011;59019;47.638;18.966;2023-10-13T05:43:44;13.73;;;7.45;;
71253;SDS011;59019;47.638;18.966;2023-10-13T05:46:28;11.98;;;6.90;;
71253;SDS011;59019;47.638;18.966;2023-10-13T05:49:05;10.85;;;6.10;;
71253;SDS011;59019;47.638;18.966;2023-10-13T05:51:41;11.85;;;6.60;;
71253;SDS011;59019;47.638;18.966;2023-10-13T05:54:23;10.90;;;6.63;;
71253;SDS011;59019;47.638;18.966;2023-10-13T05:57:07;12.88;;;6.60;;
71253;SDS011;59019;47.638;18.966;2023-10-13T06:00:05;11.55;;;7.13;;
71253;SDS011;59019;47.638;18.966;2023-10-13T06:02:49;13.30;;;6.93;;
71253;SDS011;59019;47.638;18.966;2023-10-13T06:05:33;12.45;;;7.47;;
71253;SDS011;59019;47.638;18.966;2023-10-13T06:08:22;11.65;;;6.93;;
71253;SDS011;59019;47.638;18.966;2023-10-13T06:11:06;11.65;;;6.30;;
71253;SDS011;59019;47.638;18.966;2023-10-13T06:13:50;21.25;;;8.20;;
71253;SDS011;59019;47.638;18.966;2023-10-13T06:16:34;16.35;;;7.13;;
71253;SDS011;59019;47.638;18.966;2023-10-13T06:19:19;343.52;;;42.53;;
71253;SDS011;59019;47.638;18.966;2023-10-13T06:22:03;892.00;;;139.27;;
71253;SDS011;59019;47.638;18.966;2023-10-13T06:24:47;440.83;;;58.37;;
71253;SDS011;59019;47.638;18.966;2023-10-13T06:27:31;281.35;;;40.15;;
71253;SDS011;59019;47.638;18.966;2023-10-13T06:30:15;74.40;;;16.00;;
71253;SDS011;59019;47.638;18.966;2023-10-13T06:32:42;21.63;;;8.10;;
71253;SDS011;59019;47.638;18.966;2023-10-13T06:35:08;18.47;;;7.67;;
71253;SDS011;59019;47.638;18.966;2023-10-13T06:37:34;29.85;;;8.82;;
71253;SDS011;59019;47.638;18.966;2023-10-13T06:40:10;15.85;;;7.03;;
71253;SDS011;59019;47.638;18.966;2023-10-13T06:42:49;15.48;;;7.20;;
71253;SDS011;59019;47.638;18.966;2023-10-13T06:45:15;11.40;;;7.10;;
71253;SDS011;59019;47.638;18.966;2023-10-13T06:47:42;16.25;;;7.25;;
71253;SDS011;59019;47.638;18.966;2023-10-13T06:50:14;15.02;;;8.00;;
71253;SDS011;59019;47.638;18.966;2023-10-13T06:52:43;15.55;;;7.78;;
71253;SDS011;59019;47.638;18.966;2023-10-13T06:55:09;14.70;;;7.38;;
71253;SDS011;59019;47.638;18.966;2023-10-13T06:57:42;14.85;;;7.18;;
71253;SDS011;59019;47.638;18.966;2023-10-13T07:00:09;14.15;;;6.93;;
71253;SDS011;59019;47.638;18.966;2023-10-13T07:02:44;13.80;;;7.50;;
71253;SDS011;59019;47.638;18.966;2023-10-13T07:05:12;13.57;;;7.25;;
71253;SDS011;59019;47.638;18.966;2023-10-13T07:07:39;16.25;;;7.00;;
71253;SDS011;59019;47.638;18.966;2023-10-13T07:10:10;14.70;;;7.10;;
71253;SDS011;59019;47.638;18.966;2023-10-13T07:12:37;13.25;;;6.88;;
71253;SDS011;59019;47.638;18.966;2023-10-13T07:15:03;16.13;;;6.95;;
71253;SDS011;59019;47.638;18.966;2023-10-13T07:17:44;13.45;;;6.40;;
71253;SDS011;59019;47.638;18.966;2023-10-13T07:20:19;15.15;;;6.82;;
71253;SDS011;59019;47.638;18.966;2023-10-13T07:22:54;14.75;;;7.13;;
71253;SDS011;59019;47.638;18.966;2023-10-13T07:25:28;14.73;;;6.70;;
71253;SDS011;59019;47.638;18.966;2023-10-13T07:28:02;15.50;;;7.45;;
71253;SDS011;59019;47.638;18.966;2023-10-13T07:30:28;15.20;;;7.07;;
71253;SDS011;59019;47.638;18.966;2023-10-13T07:32:56;13.27;;;6.97;;
71253;SDS011;59019;47.638;18.966;2023-10-13T07:35:24;14.20;;;7.07;;
71253;SDS011;59019;47.638;18.966;2023-10-13T07:37:52;13.10;;;6.43;;
71253;SDS011;59019;47.638;18.966;2023-10-13T07:40:20;13.57;;;6.50;;
71253;SDS011;59019;47.638;18.966;2023-10-13T07:43:07;13.48;;;7.53;;
71253;SDS011;59019;47.638;18.966;2023-10-13T07:45:39;14.48;;;7.97;;
71253;SDS011;59019;47.638;18.966;2023-10-13T07:48:09;15.10;;;8.27;;
71253;SDS011;59019;47.638;18.966;2023-10-13T07:50:52;16.67;;;9.30;;
71253;SDS011;59019;47.638;18.966;2023-10-13T07:53:32;17.73;;;8.48;;
71253;SDS011;59019;47.638;18.966;2023-10-13T07:56:03;13.30;;;7.90;;
71253;SDS011;59019;47.638;18.966;2023-10-13T07:58:33;11.80;;;7.10;;
71253;SDS011;59019;47.638;18.966;2023-10-13T08:00:59;12.38;;;6.95;;
71253;SDS011;59019;47.638;18.966;2023-10-13T08:03:35;13.70;;;6.15;;
71253;SDS011;59019;47.638;18.966;2023-10-13T08:06:09;12.55;;;5.60;;
71253;SDS011;59019;47.638;18.966;2023-10-13T08:08:35;10.82;;;5.63;;
71253;SDS011;59019;47.638;18.966;2023-10-13T08:11:04;11.90;;;5.70;;
71253;SDS011;59019;47.638;18.966;2023-10-13T08:13:39;12.07;;;5.70;;
71253;SDS011;59019;47.638;18.966;2023-10-13T08:16:12;13.40;;;6.35;;
71253;SDS011;59019;47.638;18.966;2023-10-13T08:18:47;14.10;;;8.00;;
71253;SDS011;59019;47.638;18.966;2023-10-13T08:21:14;15.35;;;6.93;;
71253;SDS011;59019;47.638;18.966;2023-10-13T08:23:43;12.47;;;6.83;;
71253;SDS011;59019;47.638;18.966;2023-10-13T08:26:22;12.05;;;7.00;;
71253;SDS011;59019;47.638;18.966;2023-10-13T08:29:06;15.85;;;7.20;;
71253;SDS011;59019;47.638;18.966;2023-10-13T08:31:47;12.27;;;7.00;;
71253;SDS011;59019;47.638;18.966;2023-10-13T08:34:34;13.57;;;7.45;;
71253;SDS011;59019;47.638;18.966;2023-10-13T08:37:05;12.83;;;7.33;;
71253;SDS011;59019;47.638;18.966;2023-10-13T08:39:56;14.23;;;7.85;;
71253;SDS011;59019;47.638;18.966;2023-10-13T08:42:28;12.30;;;7.03;;
71253;SDS011;59019;47.638;18.966;2023-10-13T08:45:07;15.60;;;7.32;;
71253;SDS011;59019;47.638;18.966;2023-10-13T08:47:56;15.00;;;7.45;;
71253;SDS011;59019;47.638;18.966;2023-10-13T08:50:36;11.57;;;6.75;;
71253;SDS011;59019;47.638;18.966;2023-10-13T08:55:55;14.23;;;7.07;;
71253;SDS011;59019;47.638;18.966;2023-10-13T08:58:41;14.20;;;7.80;;
71253;SDS011;59019;47.638;18.966;2023-10-13T09:01:29;13.80;;;7.35;;
71253;SDS011;59019;47.638;18.966;2023-10-13T09:04:14;15.02;;;8.20;;
71253;SDS011;59019;47.638;18.966;2023-10-13T09:06:53;13.90;;;8.07;;
71253;SDS011;59019;47.638;18.966;2023-10-13T09:09:30;14.30;;;8.05;;
71253;SDS011;59019;47.638;18.966;2023-10-13T09:12:01;15.95;;;9.40;;
71253;SDS011;59019;47.638;18.966;2023-10-13T09:14:34;14.27;;;9.63;;
71253;SDS011;59019;47.638;18.966;2023-10-13T09:17:06;17.65;;;9.80;;
71253;SDS011;59019;47.638;18.966;2023-10-13T09:19:58;17.43;;;10.60;;
71253;SDS011;59019;47.638;18.966;2023-10-13T09:22:49;18.40;;;10.48;;
71253;SDS011;59019;47.638;18.966;2023-10-13T09:25:36;15.13;;;9.15;;
71253;SDS011;59019;47.638;18.966;2023-10-13T09:30:49;15.85;;;10.07;;
71253;SDS011;59019;47.638;18.966;2023-10-13T09:33:20;15.00;;;9.80;;
71253;SDS011;59019;47.638;18.966;2023-10-13T09:36:07;17.40;;;10.00;;
71253;SDS011;59019;47.638;18.966;2023-10-13T09:38:36;16.67;;;9.63;;
71253;SDS011;59019;47.638;18.966;2023-10-13T09:41:06;17.90;;;9.02;;
71253;SDS011;59019;47.638;18.966;2023-10-13T09:43:57;14.77;;;8.40;;
71253;SDS011;59019;47.638;18.966;2023-10-13T09:46:25;14.83;;;8.33;;
71253;SDS011;59019;47.638;18.966;2023-10-13T09:48:58;14.13;;;7.90;;
71253;SDS011;59019;47.638;18.966;2023-10-13T09:51:33;16.10;;;8.20;;
71253;SDS011;59019;47.638;18.966;2023-10-13T09:54:06;12.50;;;7.90;;
71253;SDS011;59019;47.638;18.966;2023-10-13T09:56:56;11.88;;;7.55;;
71253;SDS011;59019;47.638;18.966;2023-10-13T09:59:32;13.57;;;8.00;;
71253;SDS011;59019;47.638;18.966;2023-10-13T10:02:03;14.68;;;8.05;;
71253;SDS011;59019;47.638;18.966;2023-10-13T10:04:34;13.25;;;7.90;;
71253;SDS011;59019;47.638;18.966;2023-10-13T10:07:10;13.85;;;8.50;;
71253;SDS011;59019;47.638;18.966;2023-10-13T10:09:35;12.15;;;7.70;;
71253;SDS011;59019;47.638;18.966;2023-10-13T10:12:19;11.93;;;7.75;;
71253;SDS011;59019;47.638;18.966;2023-10-13T10:17:41;13.40;;;7.60;;
71253;SDS011;59019;47.638;18.966;2023-10-13T10:20:07;13.13;;;7.50;;
71253;SDS011;59019;47.638;18.966;2023-10-13T10:22:58;13.50;;;7.63;;
71253;SDS011;59019;47.638;18.966;2023-10-13T10:25:31;14.57;;;7.97;;
71253;SDS011;59019;47.638;18.966;2023-10-13T10:28:01;12.23;;;7.20;;
71253;SDS011;59019;47.638;18.966;2023-10-13T10:30:31;15.90;;;7.85;;
71253;SDS011;59019;47.638;18.966;2023-10-13T10:33:03;15.52;;;7.43;;
71253;SDS011;59019;47.638;18.966;2023-10-13T10:35:38;11.60;;;6.57;;
71253;SDS011;59019;47.638;18.966;2023-10-13T10:38:15;11.27;;;6.82;;
71253;SDS011;59019;47.638;18.966;2023-10-13T10:40:49;13.75;;;6.93;;
71253;SDS011;59019;47.638;18.966;2023-10-13T10:43:29;11.25;;;6.35;;
71253;SDS011;59019;47.638;18.966;2023-10-13T10:46:26;13.27;;;6.75;;
71253;SDS011;59019;47.638;18.966;2023-10-13T10:48:53;12.77;;;7.05;;
71253;SDS011;59019;47.638;18.966;2023-10-13T10:51:26;12.98;;;7.28;;
71253;SDS011;59019;47.638;18.966;2023-10-13T10:53:56;11.60;;;6.70;;
71253;SDS011;59019;47.638;18.966;2023-10-13T10:56:23;11.90;;;7.15;;
71253;SDS011;59019;47.638;18.966;2023-10-13T10:58:57;14.18;;;6.97;;
71253;SDS011;59019;47.638;18.966;2023-10-13T11:01:25;12.07;;;7.05;;
71253;SDS011;59019;47.638;18.966;2023-10-13T11:06:32;12.30;;;5.70;;
71253;SDS011;59019;47.638;18.966;2023-10-13T11:09:06;11.98;;;5.65;;
71253;SDS011;59019;47.638;18.966;2023-10-13T11:11:46;13.70;;;6.03;;
71253;SDS011;59019;47.638;18.966;2023-10-13T11:14:24;13.18;;;5.70;;
71253;SDS011;59019;47.638;18.966;2023-10-13T11:16:55;11.57;;;5.50;;
71253;SDS011;59019;47.638;18.966;2023-10-13T11:19:41;12.85;;;5.63;;
71253;SDS011;59019;47.638;18.966;2023-10-13T11:24:57;10.70;;;5.55;;
71253;SDS011;59019;47.638;18.966;2023-10-13T11:30:22;10.80;;;5.45;;
71253;SDS011;59019;47.638;18.966;2023-10-13T11:33:09;9.88;;;5.30;;
71253;SDS011;59019;47.638;18.966;2023-10-13T11:35:37;12.20;;;5.73;;
71253;SDS011;59019;47.638;18.966;2023-10-13T11:41:02;12.27;;;5.75;;
71253;SDS011;59019;47.638;18.966;2023-10-13T11:43:52;12.68;;;5.45;;
71253;SDS011;59019;47.638;18.966;2023-10-13T11:49:02;13.18;;;4.95;;
71253;SDS011;59019;47.638;18.966;2023-10-13T11:51:44;12.20;;;4.70;;
71253;SDS011;59019;47.638;18.966;2023-10-13T11:54:17;10.90;;;4.77;;
71253;SDS011;59019;47.638;18.966;2023-10-13T11:56:44;10.88;;;4.82;;
71253;SDS011;59019;47.638;18.966;2023-10-13T11:59:10;11.32;;;4.47;;
71253;SDS011;59019;47.638;18.966;2023-10-13T12:01:46;9.88;;;4.20;;
71253;SDS011;59019;47.638;18.966;2023-10-13T12:04:30;9.88;;;4.07;;
71253;SDS011;59019;47.638;18.966;2023-10-13T12:07:05;10.73;;;3.97;;
71253;SDS011;59019;47.638;18.966;2023-10-13T12:09:53;9.93;;;4.20;;
71253;SDS011;59019;47.638;18.966;2023-10-13T12:14:47;9.00;;;4.10;;
71253;SDS011;59019;47.638;18.966;2023-10-13T12:17:20;10.95;;;4.20;;
71253;SDS011;59019;47.638;18.966;2023-10-13T12:19:59;10.60;;;4.07;;
71253;SDS011;59019;47.638;18.966;2023-10-13T12:22:34;9.83;;;4.00;;
71253;SDS011;59019;47.638;18.966;2023-10-13T12:25:01;11.10;;;4.20;;
71253;SDS011;59019;47.638;18.966;2023-10-13T12:27:30;13.70;;;4.65;;
71253;SDS011;59019;47.638;18.966;2023-10-13T12:30:11;9.10;;;4.30;;
71253;SDS011;59019;47.638;18.966;2023-10-13T12:32:38;11.00;;;4.60;;
71253;SDS011;59019;47.638;18.966;2023-10-13T12:35:09;10.68;;;4.78;;
71253;SDS011;59019;47.638;18.966;2023-10-13T12:37:35;11.20;;;4.63;;
71253;SDS011;59019;47.638;18.966;2023-10-13T12:40:01;12.10;;;5.00;;
71253;SDS011;59019;47.638;18.966;2023-10-13T12:42:46;13.88;;;5.45;;
71253;SDS011;59019;47.638;18.966;2023-10-13T12:45:30;12.30;;;5.25;;
71253;SDS011;59019;47.638;18.966;2023-10-13T12:48:14;11.15;;;5.07;;
71253;SDS011;59019;47.638;18.966;2023-10-13T12:51:01;9.20;;;4.97;;
71253;SDS011;59019;47.638;18.966;2023-10-13T12:53:54;11.55;;;5.28;;
71253;SDS011;59019;47.638;18.966;2023-10-13T12:56:29;11.13;;;5.55;;
71253;SDS011;59019;47.638;18.966;2023-10-13T12:58:55;11.45;;;5.45;;
71253;SDS011;59019;47.638;18.966;2023-10-13T13:01:22;12.23;;;5.15;;
71253;SDS011;59019;47.638;18.966;2023-10-13T13:03:57;10.13;;;5.25;;
71253;SDS011;59019;47.638;18.966;2023-10-13T13:06:24;11.40;;;4.93;;
71253;SDS011;59019;47.638;18.966;2023-10-13T13:08:54;13.63;;;5.72;;
71253;SDS011;59019;47.638;18.966;2023-10-13T13:11:21;11.68;;;4.97;;
71253;SDS011;59019;47.638;18.966;2023-10-13T13:13:47;12.02;;;5.20;;
71253;SDS011;59019;47.638;18.966;2023-10-13T13:16:15;12.20;;;4.93;;
71253;SDS011;59019;47.638;18.966;2023-10-13T13:18:51;10.80;;;5.20;;
71253;SDS011;59019;47.638;18.966;2023-10-13T13:21:20;12.68;;;5.80;;
71253;SDS011;59019;47.638;18.966;2023-10-13T13:23:51;11.25;;;5.28;;
71253;SDS011;59019;47.638;18.966;2023-10-13T13:26:20;12.43;;;5.20;;
71253;SDS011;59019;47.638;18.966;2023-10-13T13:28:49;10.85;;;5.40;;
71253;SDS011;59019;47.638;18.966;2023-10-13T13:31:18;13.00;;;5.43;;
71253;SDS011;59019;47.638;18.966;2023-10-13T13:33:44;13.70;;;5.47;;
71253;SDS011;59019;47.638;18.966;2023-10-13T13:36:09;12.65;;;5.47;;
71253;SDS011;59019;47.638;18.966;2023-10-13T13:38:39;10.38;;;5.15;;
71253;SDS011;59019;47.638;18.966;2023-10-13T13:41:05;10.48;;;4.70;;
71253;SDS011;59019;47.638;18.966;2023-10-13T13:43:40;13.73;;;4.43;;
71253;SDS011;59019;47.638;18.966;2023-10-13T13:46:19;11.17;;;4.40;;
71253;SDS011;59019;47.638;18.966;2023-10-13T13:48:49;9.93;;;4.13;;
71253;SDS011;59019;47.638;18.966;2023-10-13T13:51:17;12.07;;;4.20;;
71253;SDS011;59019;47.638;18.966;2023-10-13T13:53:51;12.97;;;4.80;;
71253;SDS011;59019;47.638;18.966;2023-10-13T13:56:18;12.47;;;4.20;;
71253;SDS011;59019;47.638;18.966;2023-10-13T13:58:47;10.57;;;4.35;;
71253;SDS011;59019;47.638;18.966;2023-10-13T14:01:15;10.13;;;4.28;;
71253;SDS011;59019;47.638;18.966;2023-10-13T14:03:43;9.25;;;4.00;;
71253;SDS011;59019;47.638;18.966;2023-10-13T14:06:17;10.93;;;4.32;;
71253;SDS011;59019;47.638;18.966;2023-10-13T14:08:46;11.35;;;4.95;;
71253;SDS011;59019;47.638;18.966;2023-10-13T14:11:35;10.77;;;4.22;;
71253;SDS011;59019;47.638;18.966;2023-10-13T14:14:07;12.18;;;4.43;;
71253;SDS011;59019;47.638;18.966;2023-10-13T14:16:54;10.52;;;4.28;;
71253;SDS011;59019;47.638;18.966;2023-10-13T14:19:27;10.07;;;4.00;;
71253;SDS011;59019;47.638;18.966;2023-10-13T14:21:56;10.90;;;4.13;;
71253;SDS011;59019;47.638;18.966;2023-10-13T14:24:23;15.43;;;5.00;;
71253;SDS011;59019;47.638;18.966;2023-10-13T14:27:08;11.15;;;4.30;;
71253;SDS011;59019;47.638;18.966;2023-10-13T14:29:37;11.45;;;4.50;;
71253;SDS011;59019;47.638;18.966;2023-10-13T14:32:11;11.50;;;4.70;;
71253;SDS011;59019;47.638;18.966;2023-10-13T14:34:42;12.65;;;5.03;;
71253;SDS011;59019;47.638;18.966;2023-10-13T14:37:09;11.68;;;4.75;;
71253;SDS011;59019;47.638;18.966;2023-10-13T14:39:38;11.45;;;4.53;;
71253;SDS011;59019;47.638;18.966;2023-10-13T14:42:05;13.65;;;4.30;;
71253;SDS011;59019;47.638;18.966;2023-10-13T14:44:34;11.88;;;4.50;;
71253;SDS011;59019;47.638;18.966;2023-10-13T14:47:03;12.05;;;4.30;;
71253;SDS011;59019;47.638;18.966;2023-10-13T14:49:33;11.37;;;4.40;;
71253;SDS011;59019;47.638;18.966;2023-10-13T14:52:00;11.77;;;6.00;;
71253;SDS011;59019;47.638;18.966;2023-10-13T14:54:26;13.05;;;5.00;;
71253;SDS011;59019;47.638;18.966;2023-10-13T14:57:03;12.70;;;4.60;;
71253;SDS011;59019;47.638;18.966;2023-10-13T14:59:29;10.98;;;4.10;;
71253;SDS011;59019;47.638;18.966;2023-10-13T15:01:58;11.82;;;4.13;;
71253;SDS011;59019;47.638;18.966;2023-10-13T15:04:29;11.65;;;4.30;;
71253;SDS011;59019;47.638;18.966;2023-10-13T15:06:59;11.25;;;3.97;;
71253;SDS011;59019;47.638;18.966;2023-10-13T15:09:29;10.60;;;4.10;;
71253;SDS011;59019;47.638;18.966;2023-10-13T15:11:55;10.97;;;3.83;;
71253;SDS011;59019;47.638;18.966;2023-10-13T15:14:21;9.05;;;3.63;;
71253;SDS011;59019;47.638;18.966;2023-10-13T15:16:48;10.90;;;3.95;;
71253;SDS011;59019;47.638;18.966;2023-10-13T15:19:14;10.23;;;3.93;;
71253;SDS011;59019;47.638;18.966;2023-10-13T15:21:41;12.88;;;3.92;;
71253;SDS011;59019;47.638;18.966;2023-10-13T15:24:08;8.80;;;3.70;;
71253;SDS011;59019;47.638;18.966;2023-10-13T15:26:46;10.07;;;3.88;;
71253;SDS011;59019;47.638;18.966;2023-10-13T15:29:15;10.55;;;3.72;;
71253;SDS011;59019;47.638;18.966;2023-10-13T15:31:42;10.33;;;4.10;;
71253;SDS011;59019;47.638;18.966;2023-10-13T15:34:29;14.57;;;5.43;;
71253;SDS011;59019;47.638;18.966;2023-10-13T15:36:55;21.07;;;7.53;;
71253;SDS011;59019;47.638;18.966;2023-10-13T15:39:21;22.70;;;9.27;;